Airfield :
LOGIN :

Register | Disclaimer

   EN    FR    IT 

 










Legend :    VFR   Marginal VFR   IFR   Intensive IFR   Very Intensive IFR
Visi :
Ceiling :
>= 8 km
>= 3000ft
5 to 8 km
1000 to 3000 ft
1500m to 5 km
500 to 1000 ft
800 to 1500m
200 to 500 ft
< 800m
< 200 ft
Symbols :   Thunderstorms  Fog  Heavy snow  Heavy precipitations  Wind > 20 kt
SIGMETs :     Misc.  Thunderstorms  Icing  Turbulence  Mountain Waves  Volcanic Ashes






- Airport Elevation : 776 ft
- IATA code : RMS


ETAR - Ramstein Air Base

CURRENT METAR :
  • 010526Z 24006KT 9999 OVC006 01/01 A2995 RMK AO2A SLP159 FZRANO $

EXPIRED METARs :
  • 010456Z 23005KT 9999 OVC007 01/01 A2995 RMK AO2A SNB0350E0359 SLP159 P0000 T00060006 FZRANO $
  • 010441Z 24007KT 9999 OVC007 01/01 A2996 RMK AO2A SNB0336E0359 SLP163 FZRANO $
  • 010426Z 24006KT 9999 OVC008 01/01 A2996 RMK SNE0359 SLP163 FZRANO $
  • 010356Z 23004KT 9000 -SN BR FEW002 OVC011 00/00 A2997 RMK AO2A SLP167 P0001 T00030003 FZRANO $
  • 010256Z 24005KT 4400 -SN BR OVC012 00/00 A2998 RMK AO2A VIS 3600 RWY09 VIS 3200 RWY27 CIG 011 RWY08 SLP169 P0000 60000 T00040004 57024 FZRANO $

TAF AMD TAF ETAR
Valid from the 01 at 05:00 until the 02 at 08:00 UTC


010526Z 0105/0208 24009KT 6000 -SN BKN007 OVC025 630159 QNH2993INS
BECMG 0110/0111 24006KT 9999 NSW SCT015 BKN020 620305 QNH2993INS
TEMPO 0111/0116 24009KT 9000 -RASN OVC010 620208
BECMG 0117/0118 VRB06KT 9999 BKN010 OVC020 620208 QNH2998INS TX04/0113Z TN01/0105Z



MET'MAP, your aeronautical weather chart ! - Copyright ORBIFLY December 2007 - Disclaimer

ORBIFLY MET'MAP TEAM :

Programming & Development : Alexandra Zaïnal
Concept & original design : Baudouin d'Aumeries
Assistance for programming : Marc-Olivier Méhu
Technical & hardware support : Manuel Goepfert

Contact : metmap@orbifly.com




SOURCES & CREDITS :

   NOAA